createdAt,value
2023-02-28T00:00:12.880Z,2.16
2023-02-28T00:02:43.378Z,2.10
2023-02-28T00:05:16.862Z,2.09
2023-02-28T00:07:46.389Z,2.07
2023-02-28T00:10:20.280Z,2.07
2023-02-28T00:12:50.019Z,1.99
2023-02-28T00:15:19.795Z,1.98
2023-02-28T00:17:49.535Z,2.00
2023-02-28T00:20:22.125Z,2.05
2023-02-28T00:22:53.620Z,2.01
2023-02-28T00:25:25.302Z,2.01
2023-02-28T00:27:54.745Z,2.01
2023-02-28T00:30:25.935Z,2.24
2023-02-28T00:32:55.390Z,2.54
2023-02-28T00:35:27.520Z,2.56
2023-02-28T00:37:57.031Z,2.43
2023-02-28T00:40:26.441Z,2.35
2023-02-28T00:42:55.875Z,2.07
2023-02-28T00:45:25.296Z,1.91
2023-02-28T00:47:54.720Z,2.10
2023-02-28T00:50:26.963Z,2.34
2023-02-28T00:52:56.474Z,1.98
2023-02-28T00:55:26.154Z,2.16
2023-02-28T00:57:55.582Z,2.12
2023-02-28T01:00:25.214Z,2.06
2023-02-28T01:02:54.637Z,2.18
2023-02-28T01:05:24.063Z,1.95
2023-02-28T01:07:56.027Z,2.00
2023-02-28T01:10:25.484Z,2.15
2023-02-28T01:12:54.861Z,2.16
2023-02-28T01:15:24.255Z,2.26
2023-02-28T01:17:56.543Z,2.15
2023-02-28T01:20:26.014Z,2.03
2023-02-28T01:22:58.043Z,2.02
2023-02-28T01:25:27.561Z,2.09
2023-02-28T01:27:56.973Z,1.83
2023-02-28T01:30:26.423Z,1.74
2023-02-28T01:32:55.797Z,1.82
2023-02-28T01:35:25.218Z,1.75
2023-02-28T01:37:54.633Z,1.98
2023-02-28T01:40:26.718Z,2.46
2023-02-28T01:42:56.097Z,2.39
2023-02-28T01:45:28.730Z,2.38
2023-02-28T01:47:59.878Z,2.75
2023-02-28T01:50:33.719Z,2.82
2023-02-28T01:53:06.030Z,2.71
2023-02-28T01:55:38.651Z,2.79
2023-02-28T01:58:10.169Z,2.59
2023-02-28T02:00:41.754Z,2.14
2023-02-28T02:03:14.669Z,2.26
2023-02-28T02:06:02.811Z,1.68
2023-02-28T02:08:32.954Z,1.75
2023-02-28T02:11:05.520Z,2.30
2023-02-28T02:13:48.358Z,2.32
2023-02-28T02:16:28.118Z,2.19
2023-02-28T02:19:01.439Z,2.06
2023-02-28T02:21:52.203Z,2.17
2023-02-28T02:24:40.996Z,1.77
2023-02-28T02:27:24.275Z,2.03
2023-02-28T02:30:23.782Z,2.60
2023-02-28T02:33:22.309Z,2.82
2023-02-28T02:35:56.856Z,2.64
2023-02-28T02:38:36.381Z,2.62
2023-02-28T02:41:12.008Z,2.66
2023-02-28T02:43:45.239Z,2.51
2023-02-28T02:46:17.886Z,2.23
2023-02-28T02:48:48.014Z,1.88
2023-02-28T02:51:21.604Z,2.32
2023-02-28T02:53:53.877Z,2.10
2023-02-28T02:56:25.950Z,2.40
2023-02-28T02:58:57.188Z,2.21
2023-02-28T03:01:31.277Z,1.87
2023-02-28T03:04:02.098Z,2.05
2023-02-28T03:06:34.071Z,2.14
2023-02-28T03:09:03.960Z,1.85
2023-02-28T03:11:33.676Z,1.78
2023-02-28T03:14:15.169Z,1.80
2023-02-28T03:16:57.258Z,1.79
2023-02-28T03:19:41.650Z,1.73
2023-02-28T03:22:53.641Z,1.72
2023-02-28T03:25:28.397Z,2.18
2023-02-28T03:28:05.504Z,2.21
2023-02-28T03:30:40.078Z,2.26
2023-02-28T03:33:13.756Z,1.82
2023-02-28T03:35:45.682Z,1.81
2023-02-28T03:38:21.241Z,2.18
2023-02-28T03:40:53.116Z,2.06
2023-02-28T03:43:26.482Z,2.04
2023-02-28T03:45:56.260Z,1.82
2023-02-28T03:48:27.848Z,1.54
2023-02-28T03:50:59.269Z,1.55
2023-02-28T03:53:33.502Z,1.57
2023-02-28T03:56:06.806Z,1.51
2023-02-28T03:58:41.498Z,1.20
2023-02-28T04:01:12.722Z,1.15
2023-02-28T04:03:42.795Z,1.05
2023-02-28T04:06:18.997Z,0.83
2023-02-28T04:08:51.631Z,0.82
2023-02-28T04:11:24.964Z,0.75
2023-02-28T04:13:54.361Z,0.61
2023-02-28T04:16:34.280Z,0.48
2023-02-28T04:19:06.380Z,0.70
2023-02-28T04:21:37.631Z,0.50
2023-02-28T04:24:10.140Z,0.54
2023-02-28T04:26:40.919Z,0.74
2023-02-28T04:29:11.005Z,0.59
2023-02-28T04:31:40.662Z,0.64
2023-02-28T04:34:10.307Z,0.56
2023-02-28T04:36:39.709Z,0.51
2023-02-28T04:39:11.861Z,0.62
2023-02-28T04:41:41.451Z,0.40
2023-02-28T04:44:10.851Z,0.01
2023-02-28T04:46:40.502Z,0.24
2023-02-28T04:49:09.938Z,0.19
2023-02-28T04:51:39.350Z,0.33
2023-02-28T04:54:11.475Z,0.05
2023-02-28T04:56:40.894Z,0.17
2023-02-28T04:59:10.272Z,0.37
2023-02-28T05:01:39.961Z,0.14
2023-02-28T05:04:09.879Z,0.01
2023-02-28T05:06:39.842Z,-0.13
2023-02-28T05:09:12.520Z,-0.48
2023-02-28T05:11:42.460Z,-0.47
2023-02-28T05:14:15.062Z,-0.35
2023-02-28T05:16:44.615Z,-0.22
2023-02-28T05:19:14.005Z,-0.24
2023-02-28T05:21:45.022Z,-0.34
2023-02-28T05:24:23.522Z,-0.01
2023-02-28T05:26:54.714Z,-0.15
2023-02-28T05:29:24.238Z,-0.48
2023-02-28T05:31:53.952Z,-0.45
2023-02-28T05:34:23.523Z,-0.57
2023-02-28T05:36:52.911Z,-0.37
2023-02-28T05:39:24.938Z,0.06
2023-02-28T05:41:54.316Z,0.07
2023-02-28T05:44:23.732Z,-0.20
2023-02-28T05:46:53.092Z,-0.50
2023-02-28T05:49:22.498Z,-0.38
2023-02-28T05:51:51.996Z,-0.43
2023-02-28T05:54:21.476Z,-0.44
2023-02-28T05:56:53.424Z,-0.65
2023-02-28T05:59:22.806Z,-0.60
2023-02-28T06:01:54.130Z,-0.63
2023-02-28T06:04:31.902Z,-0.62
2023-02-28T06:07:02.709Z,-0.45
2023-02-28T06:09:32.327Z,-0.54
2023-02-28T06:12:06.655Z,-0.61
2023-02-28T06:14:37.437Z,-0.77
2023-02-28T06:17:08.884Z,-0.78
2023-02-28T06:19:39.726Z,-0.93
2023-02-28T06:22:09.153Z,-0.76
2023-02-28T06:24:38.597Z,-0.44
2023-02-28T06:27:10.593Z,-0.12
2023-02-28T06:29:40.939Z,-0.50
2023-02-28T06:32:10.531Z,-0.31
2023-02-28T06:34:39.967Z,-0.42
2023-02-28T06:37:09.413Z,-0.37
2023-02-28T06:39:38.791Z,-0.28
2023-02-28T06:42:10.796Z,-0.02
2023-02-28T06:44:40.266Z,0.30
2023-02-28T06:47:09.948Z,0.26
2023-02-28T06:49:40.199Z,0.07
2023-02-28T06:52:10.821Z,0.02
2023-02-28T06:54:40.410Z,-0.12
2023-02-28T06:57:12.481Z,-0.28
2023-02-28T06:59:41.890Z,-0.52
2023-02-28T07:02:11.912Z,-0.62
2023-02-28T07:04:44.596Z,-0.46
2023-02-28T07:07:14.069Z,-0.28
2023-02-28T07:09:43.479Z,-0.15
2023-02-28T07:12:15.549Z,0.07
2023-02-28T07:14:45.062Z,0.05
2023-02-28T07:17:14.940Z,-0.19
2023-02-28T07:19:44.308Z,-0.42
2023-02-28T07:22:15.798Z,-0.57
2023-02-28T07:24:45.430Z,-0.68
2023-02-28T07:27:26.719Z,-0.77
2023-02-28T07:29:56.670Z,-0.77
2023-02-28T07:32:26.237Z,-0.68
2023-02-28T07:34:56.064Z,-0.65
2023-02-28T07:37:25.806Z,-0.63
2023-02-28T07:39:55.264Z,-0.51
2023-02-28T07:42:27.280Z,-0.42
2023-02-28T07:44:56.704Z,-0.21
2023-02-28T07:47:28.744Z,-0.16
2023-02-28T07:49:58.624Z,-0.30
2023-02-28T07:52:28.399Z,-0.21
2023-02-28T07:54:57.799Z,-0.01
2023-02-28T07:57:29.777Z,0.66
2023-02-28T07:59:59.161Z,0.56
2023-02-28T08:02:28.772Z,0.42
2023-02-28T08:04:58.266Z,0.43
2023-02-28T08:07:27.765Z,0.32
2023-02-28T08:09:57.573Z,0.34
2023-02-28T08:12:29.717Z,0.40
2023-02-28T08:14:59.107Z,0.51
2023-02-28T08:17:28.499Z,0.65
2023-02-28T08:19:57.896Z,0.59
2023-02-28T08:22:27.364Z,0.66
2023-02-28T08:24:57.201Z,0.72
2023-02-28T08:27:29.245Z,0.79
2023-02-28T08:29:58.623Z,0.87
2023-02-28T08:32:30.149Z,0.92
2023-02-28T08:35:00.318Z,0.97
2023-02-28T08:37:29.937Z,1.08
2023-02-28T08:39:59.383Z,1.61
2023-02-28T08:42:31.562Z,1.35
2023-02-28T08:45:00.983Z,1.25
2023-02-28T08:47:30.426Z,1.33
2023-02-28T08:49:59.851Z,1.41
2023-02-28T08:52:29.287Z,1.37
2023-02-28T08:54:58.728Z,1.51
2023-02-28T08:57:30.917Z,1.68
2023-02-28T09:00:00.357Z,1.88
2023-02-28T09:02:29.827Z,1.87
2023-02-28T09:04:59.322Z,1.90
2023-02-28T09:07:29.006Z,1.95
2023-02-28T09:09:58.926Z,2.22
2023-02-28T09:12:31.686Z,2.23
2023-02-28T09:15:01.075Z,2.33
2023-02-28T09:17:31.205Z,2.50
2023-02-28T09:20:01.006Z,2.47
2023-02-28T09:22:30.437Z,2.43
2023-02-28T09:24:59.801Z,2.36
2023-02-28T09:27:31.814Z,2.59
2023-02-28T09:30:01.238Z,2.70
2023-02-28T09:32:30.838Z,2.75
2023-02-28T09:35:00.230Z,2.76
2023-02-28T09:37:30.349Z,2.89
2023-02-28T09:39:59.763Z,2.86
2023-02-28T09:42:34.621Z,3.04
2023-02-28T09:45:06.362Z,3.00
2023-02-28T09:47:38.537Z,2.95
2023-02-28T09:50:16.796Z,3.07
2023-02-28T09:52:46.461Z,3.20
2023-02-28T09:55:23.983Z,3.36
2023-02-28T09:57:57.735Z,3.43
2023-02-28T10:00:29.916Z,3.47
2023-02-28T10:03:08.512Z,3.60
2023-02-28T10:05:44.141Z,3.69
2023-02-28T10:08:17.905Z,3.69
2023-02-28T10:10:48.841Z,3.77
2023-02-28T10:13:26.982Z,3.53
2023-02-28T10:16:00.346Z,3.62
2023-02-28T10:18:32.747Z,3.85
2023-02-28T10:21:02.568Z,3.59
2023-02-28T10:23:36.319Z,3.76
2023-02-28T10:26:13.893Z,3.85
2023-02-28T10:28:46.229Z,3.94
2023-02-28T10:31:20.219Z,3.97
2023-02-28T10:33:50.078Z,4.03
2023-02-28T10:36:21.571Z,4.15
2023-02-28T10:38:51.738Z,4.30
2023-02-28T10:41:31.564Z,4.29
2023-02-28T10:44:22.073Z,4.39
2023-02-28T10:46:52.178Z,4.32
2023-02-28T10:49:24.576Z,4.39
2023-02-28T10:51:57.865Z,4.55
2023-02-28T10:54:30.945Z,4.58
2023-02-28T10:57:18.859Z,4.66
2023-02-28T10:59:55.981Z,4.39
2023-02-28T11:02:36.076Z,4.64
2023-02-28T11:05:09.063Z,4.69
2023-02-28T11:07:53.052Z,4.58
2023-02-28T11:10:24.938Z,4.51
2023-02-28T11:13:00.572Z,4.64
2023-02-28T11:15:34.994Z,4.55
2023-02-28T11:18:21.897Z,4.70
2023-02-28T11:20:52.539Z,4.71
2023-02-28T11:23:22.981Z,5.03
2023-02-28T11:25:55.247Z,5.09
2023-02-28T11:28:30.659Z,5.31
2023-02-28T11:31:20.477Z,5.39
2023-02-28T11:33:52.671Z,5.23
2023-02-28T11:36:25.674Z,5.24
2023-02-28T11:38:55.741Z,5.42
2023-02-28T11:41:55.040Z,5.25
2023-02-28T11:44:36.972Z,5.30
2023-02-28T11:47:15.257Z,5.15
2023-02-28T11:49:54.508Z,5.32
2023-02-28T11:52:28.602Z,5.53
2023-02-28T11:55:09.905Z,5.55
2023-02-28T11:58:00.862Z,5.57
2023-02-28T12:00:44.504Z,5.61
2023-02-28T12:03:24.703Z,5.53
2023-02-28T12:06:02.308Z,5.64
2023-02-28T12:08:49.460Z,5.67
2023-02-28T12:11:28.937Z,5.76
2023-02-28T12:14:20.130Z,5.77
2023-02-28T12:16:58.288Z,5.81
2023-02-28T12:19:32.384Z,5.64
2023-02-28T12:22:16.498Z,5.68
2023-02-28T12:24:59.115Z,5.66
2023-02-28T12:27:32.382Z,5.53
2023-02-28T12:30:05.489Z,5.53
2023-02-28T12:32:36.749Z,5.77
2023-02-28T12:35:15.770Z,5.85
2023-02-28T12:37:49.458Z,6.04
2023-02-28T12:40:22.057Z,6.29
2023-02-28T12:42:54.046Z,6.46
2023-02-28T12:45:25.598Z,6.84
2023-02-28T12:47:59.569Z,6.73
2023-02-28T12:50:32.790Z,6.96
2023-02-28T12:53:04.911Z,7.43
2023-02-28T12:55:41.590Z,7.53
2023-02-28T12:58:17.867Z,7.73
2023-02-28T13:01:02.534Z,8.49
2023-02-28T13:03:42.797Z,8.94
2023-02-28T13:06:30.478Z,8.59
2023-02-28T13:09:08.448Z,9.16
2023-02-28T13:11:43.600Z,9.68
2023-02-28T13:14:32.011Z,10.13
2023-02-28T13:17:04.148Z,10.12
2023-02-28T13:19:35.440Z,10.56
2023-02-28T13:22:08.695Z,10.34
2023-02-28T13:24:44.506Z,10.11
2023-02-28T13:27:44.764Z,10.22
2023-02-28T13:30:47.102Z,10.08
2023-02-28T13:33:28.539Z,10.77
2023-02-28T13:36:14.244Z,10.75
2023-02-28T13:38:48.874Z,10.90
2023-02-28T13:41:48.157Z,11.18
2023-02-28T13:44:19.663Z,11.52
2023-02-28T13:47:19.199Z,11.51
2023-02-28T13:49:48.653Z,11.45
2023-02-28T13:52:21.380Z,11.58
2023-02-28T13:55:09.648Z,11.69
2023-02-28T13:57:48.505Z,11.81
2023-02-28T14:00:27.376Z,11.58
2023-02-28T14:03:17.614Z,11.54
2023-02-28T14:05:47.285Z,11.98
2023-02-28T14:08:19.259Z,11.96
2023-02-28T14:10:53.058Z,11.91
2023-02-28T14:13:45.779Z,11.97
2023-02-28T14:16:16.011Z,12.25
2023-02-28T14:18:51.216Z,12.46
2023-02-28T14:21:27.277Z,12.71
2023-02-28T14:24:10.906Z,12.67
2023-02-28T14:26:59.907Z,12.74
2023-02-28T14:29:49.242Z,12.58
2023-02-28T14:32:26.658Z,12.77
2023-02-28T14:37:32.626Z,12.49
2023-02-28T14:40:04.711Z,12.61
2023-02-28T14:42:38.922Z,12.56
2023-02-28T14:45:09.436Z,12.21
2023-02-28T14:47:39.355Z,12.07
2023-02-28T14:50:10.751Z,12.22
2023-02-28T14:52:40.240Z,12.22
2023-02-28T14:55:16.532Z,12.15
2023-02-28T14:57:55.682Z,12.48
2023-02-28T15:00:27.691Z,12.78
2023-02-28T15:02:58.526Z,12.71
2023-02-28T15:05:30.897Z,12.05
2023-02-28T15:08:09.536Z,12.85
2023-02-28T15:10:39.113Z,12.37
2023-02-28T15:13:16.144Z,12.33
2023-02-28T15:16:05.236Z,11.98
2023-02-28T15:18:40.023Z,12.32
2023-02-28T15:21:11.045Z,12.28
2023-02-28T15:23:40.636Z,10.97
2023-02-28T15:26:11.602Z,10.22
2023-02-28T15:28:43.729Z,9.93
2023-02-28T15:31:24.528Z,10.27
2023-02-28T15:33:58.411Z,10.44
2023-02-28T15:36:32.808Z,10.15
2023-02-28T15:39:14.431Z,9.64
2023-02-28T15:41:45.246Z,9.14
2023-02-28T15:44:22.015Z,9.22
2023-02-28T15:46:58.996Z,8.67
2023-02-28T15:49:29.053Z,8.40
2023-02-28T15:52:02.219Z,8.04
2023-02-28T15:54:33.707Z,7.75
2023-02-28T15:57:09.521Z,7.70
2023-02-28T15:59:42.108Z,7.36
2023-02-28T16:02:21.836Z,7.22
2023-02-28T16:05:16.224Z,7.23
2023-02-28T16:07:49.213Z,7.20
2023-02-28T16:10:19.207Z,7.02
2023-02-28T16:12:48.663Z,6.83
2023-02-28T16:15:25.684Z,6.75
2023-02-28T16:17:55.457Z,6.64
2023-02-28T16:20:27.083Z,6.61
2023-02-28T16:22:57.293Z,6.53
2023-02-28T16:25:32.528Z,6.43
2023-02-28T16:28:01.989Z,6.29
2023-02-28T16:30:34.986Z,6.19
2023-02-28T16:33:04.437Z,6.08
2023-02-28T16:35:33.943Z,5.93
2023-02-28T16:38:03.376Z,5.90
2023-02-28T16:40:37.630Z,5.78
2023-02-28T16:43:10.449Z,5.86
2023-02-28T16:45:42.621Z,5.79
2023-02-28T16:48:15.195Z,5.72
2023-02-28T16:50:45.523Z,5.73
2023-02-28T16:53:14.929Z,5.70
2023-02-28T16:55:44.547Z,5.71
2023-02-28T16:58:18.392Z,5.67
2023-02-28T17:00:50.446Z,5.40
2023-02-28T17:03:33.194Z,5.31
2023-02-28T17:06:03.594Z,5.19
2023-02-28T17:08:33.628Z,5.20
2023-02-28T17:11:03.722Z,5.12
2023-02-28T17:13:35.445Z,5.12
2023-02-28T17:16:08.876Z,4.98
2023-02-28T17:18:40.003Z,4.84
2023-02-28T17:21:16.197Z,4.89
2023-02-28T17:23:45.725Z,4.79
2023-02-28T17:26:20.921Z,4.50
2023-02-28T17:28:52.104Z,4.31
2023-02-28T17:31:24.228Z,4.27
2023-02-28T17:33:54.017Z,4.13
2023-02-28T17:36:25.739Z,4.30
2023-02-28T17:38:56.225Z,4.28
2023-02-28T17:41:27.279Z,4.28
2023-02-28T17:43:57.410Z,4.08
2023-02-28T17:46:30.135Z,3.79
2023-02-28T17:48:59.714Z,3.64
2023-02-28T17:51:29.146Z,3.62
2023-02-28T17:53:58.565Z,3.71
2023-02-28T17:56:29.536Z,3.76
2023-02-28T17:59:00.020Z,3.81
2023-02-28T18:01:32.118Z,3.82
2023-02-28T18:04:01.604Z,3.76
2023-02-28T18:06:33.078Z,3.67
2023-02-28T18:09:02.526Z,3.56
2023-02-28T18:11:42.259Z,3.46
2023-02-28T18:14:11.731Z,3.28
2023-02-28T18:16:43.765Z,3.19
2023-02-28T18:19:15.794Z,3.08
2023-02-28T18:21:45.393Z,2.97
2023-02-28T18:24:15.558Z,2.91
2023-02-28T18:26:45.984Z,2.92
2023-02-28T18:29:20.193Z,2.88
2023-02-28T18:31:52.795Z,2.85
2023-02-28T18:34:22.798Z,2.84
2023-02-28T18:38:52.004Z,2.66
2023-02-28T18:41:21.210Z,2.58
2023-02-28T18:43:50.984Z,2.53
2023-02-28T18:46:20.935Z,2.54
2023-02-28T18:48:51.926Z,2.58
2023-02-28T18:51:22.816Z,2.65
2023-02-28T18:53:53.260Z,2.53
2023-02-28T18:56:24.519Z,2.41
2023-02-28T18:58:54.949Z,2.35
2023-02-28T19:01:26.939Z,2.34
2023-02-28T19:03:56.423Z,2.34
2023-02-28T19:06:26.026Z,2.31
2023-02-28T19:08:59.367Z,2.28
2023-02-28T19:11:29.176Z,2.27
2023-02-28T19:13:59.687Z,2.29
2023-02-28T19:16:30.684Z,2.31
2023-02-28T19:19:00.291Z,2.29
2023-02-28T19:21:29.743Z,2.39
2023-02-28T19:24:01.963Z,2.43
2023-02-28T19:26:31.523Z,2.36
2023-02-28T19:29:01.145Z,2.24
2023-02-28T19:31:30.834Z,2.30
2023-02-28T19:34:00.393Z,2.36
2023-02-28T19:36:29.991Z,2.38
2023-02-28T19:39:04.647Z,2.20
2023-02-28T19:41:34.087Z,1.98
2023-02-28T19:44:03.511Z,1.86
2023-02-28T19:46:32.980Z,1.77
2023-02-28T19:49:02.398Z,1.73
2023-02-28T19:51:34.084Z,1.83
2023-02-28T19:54:06.614Z,1.91
2023-02-28T19:56:36.228Z,1.96
2023-02-28T19:59:12.848Z,1.92
2023-02-28T20:01:54.575Z,1.76
2023-02-28T20:04:24.057Z,1.72
2023-02-28T20:06:53.557Z,1.64
2023-02-28T20:09:25.537Z,1.67
2023-02-28T20:11:59.447Z,1.55
2023-02-28T20:14:29.437Z,1.46
2023-02-28T20:16:59.058Z,1.52
2023-02-28T20:19:28.854Z,1.56
2023-02-28T20:21:58.291Z,1.51
2023-02-28T20:24:30.373Z,1.56
2023-02-28T20:27:00.099Z,1.62
2023-02-28T20:29:29.834Z,1.64
2023-02-28T20:32:00.826Z,1.61
2023-02-28T20:34:30.401Z,1.48
2023-02-28T20:41:00.010Z,1.49
2023-02-28T20:43:29.114Z,1.48
2023-02-28T20:46:01.036Z,1.42
2023-02-28T20:48:29.448Z,1.39
2023-02-28T20:50:59.053Z,1.34
2023-02-28T20:53:29.660Z,1.27
2023-02-28T20:56:01.061Z,1.26
2023-02-28T20:58:31.893Z,1.31
2023-02-28T21:01:04.881Z,1.32
2023-02-28T21:03:36.143Z,1.09
2023-02-28T21:06:06.263Z,0.98
2023-02-28T21:08:36.739Z,0.97
2023-02-28T21:11:13.965Z,0.90
2023-02-28T21:13:44.637Z,0.83
2023-02-28T21:16:17.278Z,0.61
2023-02-28T21:18:46.861Z,0.51
2023-02-28T21:21:18.439Z,0.58
2023-02-28T21:23:48.383Z,0.69
2023-02-28T21:26:22.382Z,0.67
2023-02-28T21:28:53.030Z,0.66
2023-02-28T21:31:23.621Z,0.62
2023-02-28T21:33:54.768Z,0.57
2023-02-28T21:36:26.181Z,0.44
2023-02-28T21:38:58.936Z,0.49
2023-02-28T21:41:31.403Z,0.59
2023-02-28T21:44:01.112Z,0.52
2023-02-28T21:46:31.834Z,0.55
2023-02-28T21:49:01.690Z,0.37
2023-02-28T21:51:32.921Z,0.26
2023-02-28T21:54:03.411Z,0.27
2023-02-28T21:56:36.634Z,0.38
2023-02-28T21:59:09.421Z,0.32
2023-02-28T22:01:40.404Z,0.30
2023-02-28T22:04:21.409Z,0.16
2023-02-28T22:06:52.653Z,0.04
2023-02-28T22:09:22.238Z,-0.04
2023-02-28T22:11:54.328Z,-0.02
2023-02-28T22:14:23.844Z,-0.02
2023-02-28T22:16:55.119Z,-0.02
2023-02-28T22:19:27.651Z,-0.07
2023-02-28T22:21:57.652Z,-0.05
2023-02-28T22:24:27.062Z,0.07
2023-02-28T22:26:59.191Z,-0.06
2023-02-28T22:29:28.668Z,-0.10
2023-02-28T22:31:58.117Z,0.03
2023-02-28T22:34:27.669Z,0.04
2023-02-28T22:36:58.036Z,0.01
2023-02-28T22:39:27.521Z,0.08
2023-02-28T22:42:00.104Z,0.20
2023-02-28T22:44:29.548Z,0.20
2023-02-28T22:46:59.067Z,-0.05
2023-02-28T22:49:28.678Z,-0.14
2023-02-28T22:51:58.118Z,-0.16
2023-02-28T22:54:27.637Z,-0.11
2023-02-28T22:56:59.707Z,-0.09
2023-02-28T22:59:29.152Z,-0.05
2023-02-28T23:01:58.585Z,-0.01
2023-02-28T23:04:27.989Z,0.05
2023-02-28T23:06:57.449Z,0.07
2023-02-28T23:09:26.821Z,0.07
2023-02-28T23:11:56.239Z,0.08
2023-02-28T23:14:28.231Z,0.10
2023-02-28T23:16:58.140Z,0.15
2023-02-28T23:19:29.944Z,0.17
2023-02-28T23:21:59.472Z,0.04
2023-02-28T23:24:30.826Z,0.03
2023-02-28T23:27:02.343Z,0.07
2023-02-28T23:29:34.585Z,0.09
2023-02-28T23:32:04.222Z,0.07
2023-02-28T23:34:33.771Z,-0.08
2023-02-28T23:37:04.813Z,-0.11
2023-02-28T23:39:34.451Z,-0.19
2023-02-28T23:42:03.898Z,-0.15
2023-02-28T23:44:35.891Z,-0.08
2023-02-28T23:47:05.545Z,-0.19
2023-02-28T23:49:34.969Z,-0.24
2023-02-28T23:52:04.993Z,-0.32
2023-02-28T23:54:35.095Z,-0.28
2023-02-28T23:57:04.652Z,-0.20
2023-02-28T23:59:36.836Z,-0.18
